Time;durP1;ratioP1;P1;durP2;ratioP2;P2;SDS_P1;SDS_P2;PMS_P1;PMS_P2;Temp;Humidity;BMP_temperature;BMP_pressure;BME280_temperature;BME280_humidity;BME280_pressure;Samples;Min_cycle;Max_cycle;Signal;HPM_P1;HPM_P2
2022/03/30 00:01:20;;;;;;;40.97;18.90;;;4.90;99.90;;;;;;4972865;28;20497;-87
2022/03/30 00:03:45;;;;;;;30.23;15.65;;;4.90;99.90;;;;;;4971434;28;20051;-86
2022/03/30 00:06:11;;;;;;;30.33;15.10;;;4.90;99.90;;;;;;4955398;28;20060;-86
2022/03/30 00:08:36;;;;;;;30.85;15.65;;;4.90;99.90;;;;;;4971304;28;20046;-86
2022/03/30 00:11:02;;;;;;;31.65;17.33;;;5.00;99.90;;;;;;4971407;28;20050;-86
2022/03/30 00:13:28;;;;;;;57.47;27.42;;;4.90;99.90;;;;;;4971278;28;20509;-86
2022/03/30 00:15:54;;;;;;;48.47;24.10;;;4.80;99.90;;;;;;4971274;28;20042;-87
2022/03/30 00:18:20;;;;;;;40.33;21.58;;;4.80;99.90;;;;;;4971591;28;20646;-86
2022/03/30 00:20:46;;;;;;;41.70;21.95;;;4.70;99.90;;;;;;4974317;28;20053;-86
2022/03/30 00:23:12;;;;;;;35.28;17.73;;;4.70;99.90;;;;;;4959075;28;20471;-86
2022/03/30 00:25:37;;;;;;;31.25;16.33;;;4.70;99.90;;;;;;4975158;28;20057;-86
2022/03/30 00:28:04;;;;;;;33.38;16.77;;;4.80;99.90;;;;;;4959042;28;20039;-86
2022/03/30 00:30:29;;;;;;;26.17;15.20;;;4.90;99.90;;;;;;4975129;28;20042;-86
2022/03/30 00:32:55;;;;;;;27.33;14.98;;;4.90;99.90;;;;;;4974953;28;20053;-86
2022/03/30 00:35:21;;;;;;;27.65;14.95;;;5.00;99.90;;;;;;4974791;28;20074;-87
2022/03/30 00:37:46;;;;;;;27.52;14.73;;;5.10;99.90;;;;;;4975132;28;20062;-86
2022/03/30 00:40:15;;;;;;;26.27;14.23;;;5.10;99.90;;;;;;4976232;28;20070;-86
2022/03/30 00:42:42;;;;;;;27.98;15.32;;;5.10;99.90;;;;;;4974860;28;20043;-87
2022/03/30 00:45:16;;;;;;;28.35;14.73;;;5.10;99.90;;;;;;4974648;28;20047;-86
2022/03/30 00:47:43;;;;;;;31.45;15.65;;;5.00;99.90;;;;;;4973289;28;20571;-86
2022/03/30 00:50:10;;;;;;;32.35;15.02;;;5.00;99.90;;;;;;4975129;28;20531;-86
2022/03/30 00:52:37;;;;;;;27.38;13.35;;;4.90;99.90;;;;;;4973337;28;20039;-87
2022/03/30 00:55:04;;;;;;;33.67;14.98;;;4.90;99.90;;;;;;4974083;28;20097;-86
2022/03/30 00:57:32;;;;;;;28.52;14.32;;;4.80;99.90;;;;;;4975673;28;20043;-87
2022/03/30 00:59:58;;;;;;;22.88;13.35;;;4.80;99.90;;;;;;4974965;28;20047;-87
2022/03/30 01:02:24;;;;;;;26.05;14.05;;;4.80;99.90;;;;;;4974533;28;20055;-86
2022/03/30 01:04:51;;;;;;;30.83;14.43;;;4.80;99.90;;;;;;4974404;28;20505;-86
2022/03/30 01:07:16;;;;;;;30.45;14.02;;;4.80;99.90;;;;;;4974287;28;20508;-86
2022/03/30 01:09:42;;;;;;;27.88;14.02;;;4.80;99.90;;;;;;4975644;28;20039;-87
2022/03/30 01:12:11;;;;;;;26.65;14.38;;;4.80;99.90;;;;;;4974663;28;20472;-86
2022/03/30 01:14:37;;;;;;;31.13;14.20;;;4.80;99.90;;;;;;4974161;28;20051;-87
2022/03/30 01:17:04;;;;;;;29.35;15.13;;;4.80;99.90;;;;;;4974493;28;20039;-86
2022/03/30 01:19:31;;;;;;;29.27;15.10;;;4.80;99.90;;;;;;4974381;28;20042;-87
2022/03/30 01:21:57;;;;;;;27.73;14.32;;;4.80;99.90;;;;;;4974167;28;20118;-86
2022/03/30 01:24:23;;;;;;;29.95;14.20;;;4.80;99.90;;;;;;4957029;28;20043;-86
2022/03/30 01:26:49;;;;;;;27.38;14.55;;;4.80;99.90;;;;;;4974383;28;20409;-85
2022/03/30 01:34:43;;;;;;;;;;;4.80;99.90;;;;;;4974231;28;20141;-87
2022/03/30 01:37:11;;;;;;;25.70;13.23;;;4.80;99.90;;;;;;4958153;28;19969;-86
2022/03/30 01:39:36;;;;;;;27.33;13.95;;;4.80;99.90;;;;;;4973954;28;20525;-86
2022/03/30 01:42:02;;;;;;;29.70;14.23;;;4.80;99.90;;;;;;4973818;28;20078;-86
2022/03/30 01:44:28;;;;;;;26.88;14.48;;;4.80;99.90;;;;;;4974705;28;20104;-86
2022/03/30 01:46:54;;;;;;;31.08;14.95;;;4.80;99.90;;;;;;4973947;28;20042;-86
2022/03/30 01:49:23;;;;;;;32.53;14.90;;;4.80;99.90;;;;;;4974870;28;20035;-86
2022/03/30 01:51:49;;;;;;;29.63;14.30;;;4.80;99.90;;;;;;4973801;28;20525;-86
2022/03/30 01:54:20;;;;;;;28.23;14.45;;;4.80;99.90;;;;;;4973315;28;20038;-86
2022/03/30 01:56:47;;;;;;;31.17;16.13;;;4.80;99.90;;;;;;4973923;28;20035;-86
2022/03/30 01:59:13;;;;;;;31.60;15.50;;;4.80;99.90;;;;;;4973492;28;20049;-86
2022/03/30 02:01:39;;;;;;;30.38;14.88;;;4.80;99.90;;;;;;4973702;28;20097;-87
2022/03/30 02:04:08;;;;;;;31.27;14.65;;;4.80;99.90;;;;;;4973302;28;20078;-86
2022/03/30 02:06:35;;;;;;;30.33;14.50;;;4.80;99.90;;;;;;4974621;28;20039;-86
2022/03/30 02:09:01;;;;;;;28.52;15.00;;;4.80;99.90;;;;;;4973226;28;20047;-86
2022/03/30 02:11:27;;;;;;;26.50;14.35;;;4.80;99.90;;;;;;4957237;28;20038;-87
2022/03/30 02:13:54;;;;;;;30.77;15.23;;;4.80;99.90;;;;;;4971039;28;20053;-86
2022/03/30 02:16:19;;;;;;;32.50;15.65;;;4.80;99.90;;;;;;4974238;28;20049;-86
2022/03/30 02:18:45;;;;;;;27.17;15.20;;;4.80;99.90;;;;;;4973127;28;20428;-87
2022/03/30 02:21:11;;;;;;;29.98;15.35;;;4.80;99.90;;;;;;4973516;28;20050;-87
2022/03/30 02:23:38;;;;;;;27.85;14.50;;;4.80;99.90;;;;;;4974576;28;20038;-88
2022/03/30 02:26:03;;;;;;;29.17;14.32;;;4.80;99.90;;;;;;4974075;28;20432;-86
2022/03/30 02:28:29;;;;;;;29.25;15.10;;;4.80;99.90;;;;;;4956915;28;20142;-87
2022/03/30 02:30:55;;;;;;;29.27;15.50;;;4.80;99.90;;;;;;4973101;28;20528;-87
2022/03/30 02:33:20;;;;;;;37.15;14.93;;;4.80;99.90;;;;;;4974167;28;20422;-87
2022/03/30 02:35:46;;;;;;;31.73;16.33;;;4.90;99.90;;;;;;4972788;28;20049;-87
2022/03/30 02:38:11;;;;;;;30.75;16.10;;;4.90;99.90;;;;;;4972745;28;20039;-87
2022/03/30 02:40:37;;;;;;;26.55;14.55;;;4.90;99.90;;;;;;4972710;28;20043;-86
2022/03/30 02:43:03;;;;;;;33.10;15.98;;;4.90;99.90;;;;;;4972022;28;20523;-86
2022/03/30 02:45:28;;;;;;;29.23;15.85;;;4.90;99.90;;;;;;4972759;28;20054;-86
2022/03/30 02:50:38;;;;;;;31.15;14.60;;;4.90;99.90;;;;;;4972792;28;20054;-87
2022/03/30 02:53:03;;;;;;;29.70;14.00;;;5.00;99.90;;;;;;4973441;28;20039;-86
2022/03/30 02:55:29;;;;;;;30.92;14.43;;;5.00;99.90;;;;;;4972571;28;20046;-87
2022/03/30 02:57:54;;;;;;;28.48;13.15;;;5.00;99.90;;;;;;4956311;28;20038;-86
2022/03/30 03:00:20;;;;;;;25.23;12.45;;;5.10;99.90;;;;;;4972474;28;20045;-87
2022/03/30 03:02:46;;;;;;;21.42;12.13;;;5.10;99.90;;;;;;4973306;28;20038;-87
2022/03/30 03:05:11;;;;;;;17.88;9.07;;;5.20;99.90;;;;;;4972662;28;20470;-87
2022/03/30 03:07:37;;;;;;;18.90;9.15;;;5.20;99.90;;;;;;4956021;28;20034;-87
2022/03/30 03:10:03;;;;;;;14.48;6.65;;;5.30;99.90;;;;;;4972266;28;20460;-87
2022/03/30 03:12:29;;;;;;;8.50;4.10;;;5.30;99.90;;;;;;4972343;28;20042;-87
2022/03/30 03:14:54;;;;;;;5.35;2.60;;;5.40;99.90;;;;;;4971946;28;20043;-87
2022/03/30 03:17:20;;;;;;;5.68;2.25;;;5.50;99.90;;;;;;4973278;28;20528;-85
2022/03/30 03:19:46;;;;;;;2.55;1.80;;;5.50;99.90;;;;;;4972177;28;20113;-87
2022/03/30 03:22:12;;;;;;;4.45;1.65;;;5.50;99.90;;;;;;4972175;28;20035;-87
2022/03/30 03:24:37;;;;;;;3.22;1.40;;;5.50;99.90;;;;;;4971921;28;20081;-87
2022/03/30 03:27:03;;;;;;;7.03;2.25;;;5.50;99.90;;;;;;4973252;28;20089;-87
2022/03/30 03:29:29;;;;;;;3.53;1.30;;;5.50;99.90;;;;;;4955859;28;20050;-86
2022/03/30 03:31:55;;;;;;;4.38;1.40;;;5.50;99.90;;;;;;4971944;28;20102;-85
2022/03/30 03:34:21;;;;;;;3.08;1.10;;;5.70;99.90;;;;;;4973397;28;20070;-86
2022/03/30 03:36:47;;;;;;;4.40;1.15;;;5.50;99.90;;;;;;4971754;28;20531;-86
2022/03/30 03:39:12;;;;;;;3.47;1.00;;;5.50;99.90;;;;;;4971642;28;20112;-86
2022/03/30 03:41:38;;;;;;;2.10;1.05;;;5.50;99.90;;;;;;4955832;28;20043;-86
2022/03/30 03:44:04;;;;;;;4.22;0.82;;;5.40;99.90;;;;;;4971462;28;20393;-87
2022/03/30 03:46:29;;;;;;;2.85;0.95;;;5.40;99.90;;;;;;4972080;28;20074;-86
2022/03/30 03:48:55;;;;;;;2.30;1.00;;;5.40;99.90;;;;;;4972914;28;20039;-87
2022/03/30 03:51:21;;;;;;;2.83;0.73;;;5.40;99.90;;;;;;4972893;28;20047;-87
2022/03/30 03:53:47;;;;;;;2.45;0.80;;;5.40;99.90;;;;;;4955164;28;20046;-88
2022/03/30 03:56:12;;;;;;;3.53;0.80;;;5.30;99.90;;;;;;4955846;28;20405;-87
2022/03/30 03:58:38;;;;;;;1.80;0.70;;;5.40;99.90;;;;;;4972850;28;20475;-86
2022/03/30 04:01:03;;;;;;;5.80;0.82;;;5.40;99.90;;;;;;4971811;28;20493;-86
2022/03/30 04:03:29;;;;;;;3.38;0.90;;;5.40;99.90;;;;;;4971629;28;20042;-87
2022/03/30 04:05:55;;;;;;;2.83;0.80;;;5.40;99.90;;;;;;4972479;28;20038;-87
2022/03/30 04:08:20;;;;;;;1.10;0.77;;;5.30;99.90;;;;;;4971401;28;20038;-86
2022/03/30 04:10:47;;;;;;;1.15;0.50;;;5.40;99.90;;;;;;4971715;28;20039;-86
2022/03/30 04:13:12;;;;;;;2.40;0.82;;;5.30;99.90;;;;;;4971276;28;20051;-85
2022/03/30 04:15:38;;;;;;;1.23;0.63;;;5.30;99.90;;;;;;4971507;28;20489;-86
2022/03/30 04:18:04;;;;;;;2.40;0.68;;;5.30;99.90;;;;;;4955351;28;20042;-87
2022/03/30 04:20:30;;;;;;;1.38;0.50;;;5.30;99.90;;;;;;4971250;28;20089;-87
2022/03/30 04:22:56;;;;;;;3.83;0.57;;;5.20;99.90;;;;;;4971329;28;20082;-87
2022/03/30 04:25:21;;;;;;;1.65;0.50;;;5.20;99.90;;;;;;4972317;28;20093;-87
2022/03/30 04:27:49;;;;;;;2.58;0.65;;;5.20;99.90;;;;;;4971258;28;20089;-87
2022/03/30 04:30:16;;;;;;;1.70;0.60;;;5.20;99.90;;;;;;4971412;28;20062;-87
2022/03/30 04:32:42;;;;;;;0.65;0.40;;;5.20;99.90;;;;;;4971348;28;20084;-87
2022/03/30 04:35:07;;;;;;;1.85;0.52;;;5.20;99.90;;;;;;4970968;28;20079;-86
2022/03/30 04:37:33;;;;;;;1.15;0.40;;;5.10;99.90;;;;;;4971177;28;20053;-87
2022/03/30 04:39:59;;;;;;;4.97;0.60;;;5.10;99.90;;;;;;4972522;28;20035;-86
2022/03/30 04:42:24;;;;;;;3.28;0.65;;;5.00;99.90;;;;;;4971522;28;20093;-86
2022/03/30 04:44:50;;;;;;;1.60;0.88;;;4.90;99.90;;;;;;4971288;28;20105;-87
2022/03/30 04:47:16;;;;;;;5.85;0.90;;;4.90;99.90;;;;;;4971415;28;20053;-86
2022/03/30 04:49:42;;;;;;;2.90;0.80;;;4.80;99.90;;;;;;4970394;28;20054;-86
2022/03/30 04:52:08;;;;;;;3.67;0.80;;;4.80;99.90;;;;;;4969889;28;20393;-86
2022/03/30 04:54:33;;;;;;;2.45;0.80;;;4.80;99.90;;;;;;4969188;28;20047;-86
2022/03/30 04:56:59;;;;;;;2.20;1.00;;;4.70;99.90;;;;;;4971134;28;20049;-87
2022/03/30 04:59:25;;;;;;;2.63;1.00;;;4.70;99.90;;;;;;4972311;28;20042;-87
2022/03/30 05:01:50;;;;;;;1.67;0.60;;;4.70;99.90;;;;;;4970872;28;20578;-86
2022/03/30 05:04:16;;;;;;;2.05;0.80;;;4.60;99.90;;;;;;4953213;28;20513;-86
2022/03/30 05:06:41;;;;;;;1.60;0.90;;;4.60;99.90;;;;;;4973320;28;20516;-86
2022/03/30 05:09:07;;;;;;;2.08;1.00;;;4.60;99.90;;;;;;4975792;28;20398;-86
2022/03/30 05:11:32;;;;;;;3.35;1.13;;;4.60;99.90;;;;;;4975467;28;20489;-86
2022/03/30 05:13:58;;;;;;;3.97;1.10;;;4.50;99.90;;;;;;4973243;28;20051;-86
2022/03/30 05:16:24;;;;;;;2.05;0.93;;;4.50;99.90;;;;;;4975479;28;20039;-87
2022/03/30 05:18:49;;;;;;;1.83;1.10;;;4.40;99.90;;;;;;4974100;28;20158;-86
2022/03/30 05:21:15;;;;;;;2.10;0.90;;;4.40;99.90;;;;;;4975660;28;20122;-87
2022/03/30 05:23:40;;;;;;;2.53;1.02;;;4.40;99.90;;;;;;4974408;28;20117;-86
2022/03/30 05:26:06;;;;;;;1.92;1.10;;;4.40;99.90;;;;;;4973953;28;20055;-86
2022/03/30 05:28:31;;;;;;;2.10;0.93;;;4.40;99.90;;;;;;4974038;28;20144;-87
2022/03/30 05:30:57;;;;;;;2.10;1.00;;;4.30;99.90;;;;;;4958546;28;20046;-87
2022/03/30 05:33:22;;;;;;;3.08;1.00;;;4.40;99.90;;;;;;4954984;28;20094;-86
2022/03/30 05:35:50;;;;;;;2.85;1.20;;;4.30;99.90;;;;;;4954279;28;20600;-86
2022/03/30 05:38:16;;;;;;;2.17;1.02;;;4.30;99.90;;;;;;4954914;28;20043;-86
2022/03/30 05:40:42;;;;;;;2.05;1.20;;;4.20;99.90;;;;;;4954581;29;20050;-86
2022/03/30 05:43:09;;;;;;;3.63;1.00;;;4.30;99.90;;;;;;4955999;28;20043;-86
2022/03/30 05:45:34;;;;;;;3.30;1.17;;;4.20;99.90;;;;;;4954374;29;20054;-87
2022/03/30 05:48:00;;;;;;;3.17;1.27;;;4.20;99.90;;;;;;4955576;28;20401;-86
2022/03/30 05:50:26;;;;;;;2.97;1.40;;;4.20;99.90;;;;;;4955585;28;20041;-86
2022/03/30 05:52:52;;;;;;;2.95;1.35;;;4.20;99.90;;;;;;4955523;28;20497;-86
2022/03/30 05:55:17;;;;;;;3.40;1.38;;;4.30;99.90;;;;;;4953977;29;20474;-86
2022/03/30 05:57:43;;;;;;;4.10;1.27;;;4.20;99.90;;;;;;4954075;28;20039;-86
2022/03/30 06:00:10;;;;;;;3.70;1.30;;;4.30;99.90;;;;;;4955581;28;20110;-87
2022/03/30 06:02:37;;;;;;;4.40;1.45;;;4.20;99.90;;;;;;4954185;28;20095;-86
2022/03/30 06:05:04;;;;;;;3.80;1.30;;;4.20;99.90;;;;;;4953888;29;20051;-87
2022/03/30 06:07:29;;;;;;;3.17;1.40;;;4.30;99.90;;;;;;4954341;28;20047;-86
2022/03/30 06:09:55;;;;;;;4.88;1.30;;;4.30;99.90;;;;;;4955125;29;20413;-87
2022/03/30 06:12:24;;;;;;;3.25;1.40;;;4.30;99.90;;;;;;4954158;28;20050;-86
2022/03/30 06:14:49;;;;;;;3.72;1.50;;;4.40;99.90;;;;;;4953726;29;20047;-86
2022/03/30 06:17:17;;;;;;;2.25;1.33;;;4.30;99.90;;;;;;4953535;28;20043;-87
2022/03/30 06:19:45;;;;;;;4.47;1.40;;;4.40;99.90;;;;;;4953536;28;20047;-87
2022/03/30 06:22:11;;;;;;;4.93;1.40;;;4.40;99.90;;;;;;4952167;29;20047;-86
2022/03/30 06:24:39;;;;;;;2.95;1.50;;;4.50;99.90;;;;;;4952470;28;20058;-85
2022/03/30 06:27:06;;;;;;;2.97;1.50;;;4.50;99.90;;;;;;4954769;28;20167;-86
2022/03/30 06:29:33;;;;;;;5.93;1.63;;;4.60;99.90;;;;;;4953171;28;20064;-86
2022/03/30 06:31:58;;;;;;;3.42;1.77;;;4.70;99.90;;;;;;4953152;28;20052;-87
2022/03/30 06:34:25;;;;;;;5.40;1.42;;;4.70;99.90;;;;;;4953051;29;20074;-86
2022/03/30 06:36:50;;;;;;;6.00;1.67;;;4.80;99.90;;;;;;4953281;28;20051;-86
2022/03/30 06:39:16;;;;;;;3.17;1.45;;;4.80;99.90;;;;;;4953500;29;20035;-86
2022/03/30 06:41:43;;;;;;;4.25;1.80;;;4.90;99.90;;;;;;4954706;28;20122;-86
2022/03/30 06:44:09;;;;;;;4.78;1.75;;;5.00;99.90;;;;;;4955658;28;20085;-86
2022/03/30 06:46:38;;;;;;;7.55;1.80;;;5.20;99.90;;;;;;4937677;29;20051;-87
2022/03/30 06:49:05;;;;;;;6.93;1.73;;;5.30;99.90;;;;;;4954542;28;20043;-86
2022/03/30 06:51:31;;;;;;;4.93;1.70;;;5.40;99.90;;;;;;4956995;28;20031;-86
2022/03/30 06:53:56;;;;;;;4.07;1.67;;;5.60;99.90;;;;;;4952752;28;20040;-86
2022/03/30 06:56:22;;;;;;;6.53;1.67;;;5.70;99.90;;;;;;4953224;29;20043;-85
2022/03/30 06:58:47;;;;;;;5.97;1.75;;;5.70;99.90;;;;;;4954142;28;20046;-86
2022/03/30 07:01:16;;;;;;;6.43;1.50;;;5.70;99.90;;;;;;4952855;28;20050;-86
2022/03/30 07:03:41;;;;;;;5.95;1.50;;;5.70;99.90;;;;;;4952145;28;20182;-85
2022/03/30 07:06:07;;;;;;;5.85;1.80;;;5.70;99.90;;;;;;4954761;28;20074;-86
2022/03/30 07:11:17;;;;;;;5.53;1.60;;;5.80;99.90;;;;;;4958568;28;20042;-86
2022/03/30 07:13:44;;;;;;;8.07;1.70;;;5.80;99.90;;;;;;4952057;28;20405;-85
2022/03/30 07:16:09;;;;;;;4.55;1.65;;;5.80;99.90;;;;;;4952162;28;20046;-85
2022/03/30 07:18:35;;;;;;;3.50;1.45;;;5.90;99.90;;;;;;4952024;28;20035;-85
2022/03/30 07:21:01;;;;;;;5.97;1.50;;;6.00;99.90;;;;;;4952469;28;20086;-85
2022/03/30 07:23:26;;;;;;;4.22;1.58;;;6.00;99.90;;;;;;4954190;28;20114;-85
2022/03/30 07:25:52;;;;;;;4.82;1.52;;;6.10;99.90;;;;;;4952010;28;20573;-85
2022/03/30 07:28:18;;;;;;;8.07;1.60;;;6.10;99.90;;;;;;4954965;28;20078;-85
2022/03/30 07:30:45;;;;;;;7.15;1.42;;;6.20;99.90;;;;;;4952962;28;20193;-86
2022/03/30 07:33:11;;;;;;;6.40;1.30;;;6.20;99.90;;;;;;4952510;29;20047;-86
2022/03/30 07:35:39;;;;;;;7.22;1.33;;;6.40;99.90;;;;;;4952475;29;20043;-86
2022/03/30 07:38:05;;;;;;;6.40;1.40;;;6.40;99.90;;;;;;4953681;28;20039;-86
2022/03/30 07:40:32;;;;;;;4.03;1.20;;;6.50;99.90;;;;;;4953573;28;20391;-85
2022/03/30 07:42:58;;;;;;;5.25;1.10;;;6.70;99.90;;;;;;4952512;29;20043;-86
2022/03/30 07:45:25;;;;;;;4.07;1.17;;;6.80;99.90;;;;;;4953358;28;20039;-86
2022/03/30 07:47:51;;;;;;;5.80;1.40;;;6.80;99.90;;;;;;4952257;28;20055;-85
2022/03/30 07:50:17;;;;;;;6.18;1.75;;;6.80;99.90;;;;;;4953763;28;20501;-85
2022/03/30 07:52:43;;;;;;;5.07;1.20;;;6.90;99.90;;;;;;4953554;28;20054;-85
2022/03/30 07:55:11;;;;;;;4.85;1.40;;;7.00;99.90;;;;;;4953133;28;20039;-85
2022/03/30 07:57:39;;;;;;;3.72;1.20;;;7.10;99.90;;;;;;4953037;28;20044;-85
2022/03/30 08:00:07;;;;;;;4.68;1.20;;;7.10;99.90;;;;;;4952243;29;20039;-86
2022/03/30 08:02:34;;;;;;;4.70;1.10;;;7.20;99.90;;;;;;4953418;28;20039;-86
2022/03/30 08:04:59;;;;;;;4.50;1.20;;;7.20;99.90;;;;;;4951665;28;20047;-86
2022/03/30 08:07:29;;;;;;;4.03;1.10;;;7.20;99.90;;;;;;4951859;28;20054;-85
2022/03/30 08:09:55;;;;;;;4.88;1.17;;;7.10;99.90;;;;;;4952009;28;20051;-85
2022/03/30 08:12:21;;;;;;;4.13;1.20;;;7.10;99.90;;;;;;4952589;28;20417;-86
2022/03/30 08:14:47;;;;;;;4.20;1.38;;;7.20;99.90;;;;;;4951705;28;20084;-85
2022/03/30 08:17:13;;;;;;;6.28;1.80;;;7.20;99.90;;;;;;4952223;29;20043;-86
2022/03/30 08:19:39;;;;;;;6.60;1.48;;;7.30;99.90;;;;;;4953303;28;20067;-85
2022/03/30 08:24:49;;;;;;;4.55;1.00;;;7.20;99.90;;;;;;4951777;28;20051;-85
2022/03/30 08:27:16;;;;;;;6.38;1.42;;;7.20;99.90;;;;;;4951972;29;20114;-85
2022/03/30 08:29:44;;;;;;;4.65;1.60;;;7.20;99.90;;;;;;4951882;28;20047;-85
2022/03/30 08:32:11;;;;;;;5.60;1.38;;;7.10;99.90;;;;;;4953429;29;20454;-85
2022/03/30 08:34:38;;;;;;;7.25;1.13;;;7.00;99.90;;;;;;4951444;28;20102;-86
2022/03/30 08:37:03;;;;;;;3.00;0.90;;;7.00;99.90;;;;;;4953220;28;20047;-86
2022/03/30 08:39:29;;;;;;;3.85;1.08;;;7.00;99.90;;;;;;4951880;28;20047;-85
2022/03/30 08:41:55;;;;;;;3.10;0.88;;;6.90;99.90;;;;;;4956135;28;20122;-86
2022/03/30 08:44:22;;;;;;;4.72;1.10;;;6.90;99.90;;;;;;4955285;29;20043;-85
2022/03/30 08:46:48;;;;;;;8.23;1.20;;;6.90;99.90;;;;;;4956809;28;20413;-85
2022/03/30 08:49:15;;;;;;;3.45;1.05;;;7.30;99.90;;;;;;4955154;28;20043;-85
2022/03/30 08:51:45;;;;;;;6.63;1.10;;;7.20;99.90;;;;;;4955488;29;20051;-85
2022/03/30 08:54:12;;;;;;;3.67;1.05;;;7.30;99.90;;;;;;4954928;28;20059;-85
2022/03/30 08:56:39;;;;;;;3.70;1.10;;;7.30;99.90;;;;;;4955769;28;20079;-85
2022/03/30 08:59:10;;;;;;;4.55;1.20;;;7.50;99.90;;;;;;4956372;28;20051;-85
2022/03/30 09:01:39;;;;;;;6.72;1.30;;;7.60;99.90;;;;;;4956436;28;20391;-85
2022/03/30 09:04:09;;;;;;;4.32;1.02;;;7.60;99.90;;;;;;4956193;28;20069;-85
2022/03/30 09:06:47;;;;;;;3.92;0.80;;;7.70;99.90;;;;;;4956555;28;20501;-85
2022/03/30 09:09:26;;;;;;;3.28;0.95;;;7.80;99.90;;;;;;4955163;29;20086;-85
2022/03/30 09:11:55;;;;;;;7.15;1.00;;;7.80;99.90;;;;;;4955020;29;20135;-85
2022/03/30 09:14:30;;;;;;;3.15;1.00;;;7.80;99.90;;;;;;4954322;28;20047;-85
2022/03/30 09:17:02;;;;;;;4.60;0.70;;;7.90;99.90;;;;;;4956206;28;20043;-84
2022/03/30 09:19:29;;;;;;;2.63;0.82;;;8.00;99.90;;;;;;4954868;28;20047;-85
2022/03/30 09:22:00;;;;;;;3.45;0.85;;;8.00;99.90;;;;;;4956144;28;20369;-85
2022/03/30 09:24:31;;;;;;;2.42;0.80;;;8.00;99.90;;;;;;4954948;28;20402;-85
2022/03/30 09:26:58;;;;;;;2.63;0.80;;;8.10;99.90;;;;;;4954637;28;20047;-85
2022/03/30 09:29:30;;;;;;;3.35;1.05;;;8.20;99.90;;;;;;4953724;28;20051;-86
2022/03/30 09:31:55;;;;;;;2.10;0.82;;;8.30;99.90;;;;;;4953918;28;20047;-86
2022/03/30 09:34:21;;;;;;;4.80;1.00;;;8.30;99.90;;;;;;4954301;29;20047;-85
2022/03/30 09:36:51;;;;;;;4.35;0.82;;;8.40;99.90;;;;;;4954676;29;20544;-85
2022/03/30 09:39:35;;;;;;;3.28;0.77;;;8.40;99.90;;;;;;4954380;28;20130;-85
2022/03/30 09:42:03;;;;;;;3.33;0.70;;;8.30;99.90;;;;;;4955769;28;20043;-86
2022/03/30 09:44:30;;;;;;;3.78;0.80;;;8.30;99.90;;;;;;4955402;28;20043;-86
2022/03/30 09:47:05;;;;;;;5.18;0.90;;;8.20;99.90;;;;;;4954610;29;20047;-86
2022/03/30 09:49:38;;;;;;;3.90;0.90;;;8.20;99.90;;;;;;4955490;28;20490;-86
2022/03/30 09:52:17;;;;;;;2.50;0.90;;;8.30;99.90;;;;;;4956241;28;20039;-85
2022/03/30 09:54:53;;;;;;;3.83;0.65;;;8.40;99.90;;;;;;4954323;28;20043;-85
2022/03/30 09:57:26;;;;;;;3.63;0.77;;;8.50;99.90;;;;;;4954349;28;20043;-85
2022/03/30 09:59:55;;;;;;;1.23;0.50;;;8.40;99.90;;;;;;4955726;28;20382;-86
2022/03/30 10:02:21;;;;;;;4.93;0.70;;;8.40;99.90;;;;;;4954041;28;20099;-86
2022/03/30 10:04:47;;;;;;;3.28;0.73;;;8.50;99.90;;;;;;4955248;28;20043;-86
2022/03/30 10:07:13;;;;;;;3.25;1.17;;;8.70;99.90;;;;;;4955371;28;20039;-86
2022/03/30 10:09:40;;;;;;;4.20;0.90;;;8.80;99.90;;;;;;4953972;29;20058;-87
2022/03/30 10:12:07;;;;;;;4.57;0.70;;;8.90;99.90;;;;;;4955296;28;20047;-86
2022/03/30 10:14:34;;;;;;;4.68;1.02;;;8.90;99.90;;;;;;4953329;29;20047;-86
2022/03/30 10:16:59;;;;;;;4.75;0.80;;;8.80;99.90;;;;;;4953842;29;20082;-86
2022/03/30 10:19:25;;;;;;;3.50;0.80;;;8.70;99.90;;;;;;4952594;28;20095;-86
2022/03/30 10:21:54;;;;;;;4.72;1.38;;;8.70;99.90;;;;;;4953237;28;20502;-86
2022/03/30 10:24:40;;;;;;;4.35;1.00;;;8.50;99.90;;;;;;4954800;28;20051;-86
2022/03/30 10:27:22;;;;;;;4.07;0.80;;;8.40;99.90;;;;;;4954721;28;20039;-86
2022/03/30 10:29:59;;;;;;;2.85;0.90;;;8.40;99.90;;;;;;4953816;29;20050;-86
2022/03/30 10:32:27;;;;;;;3.88;1.10;;;8.40;99.90;;;;;;4953725;28;20084;-86
2022/03/30 10:35:00;;;;;;;3.60;1.20;;;8.30;99.90;;;;;;4953285;28;20118;-86
2022/03/30 10:37:34;;;;;;;6.47;1.40;;;8.20;99.90;;;;;;4953631;28;20610;-86
2022/03/30 10:40:11;;;;;;;4.53;1.52;;;8.20;99.90;;;;;;4953483;28;20051;-86
2022/03/30 10:42:45;;;;;;;4.85;1.80;;;8.30;99.90;;;;;;4953430;28;20035;-86
2022/03/30 10:45:30;;;;;;;7.68;1.67;;;8.40;99.90;;;;;;4953340;28;20572;-86
2022/03/30 10:48:24;;;;;;;4.72;1.35;;;8.60;99.90;;;;;;4953454;28;20082;-86
2022/03/30 10:50:55;;;;;;;5.57;1.63;;;8.80;99.90;;;;;;4953214;29;20064;-86
2022/03/30 10:53:38;;;;;;;6.22;1.60;;;8.80;99.90;;;;;;4953093;28;20781;-86
2022/03/30 10:56:15;;;;;;;4.30;1.40;;;8.80;99.90;;;;;;4952998;28;20074;-86
2022/03/30 10:58:52;;;;;;;3.13;1.17;;;8.90;99.90;;;;;;4953005;28;20597;-86
2022/03/30 11:01:22;;;;;;;2.17;1.10;;;8.90;99.90;;;;;;4954285;28;20509;-87
2022/03/30 11:04:13;;;;;;;4.47;1.15;;;8.90;99.90;;;;;;4951471;28;20067;-85
2022/03/30 11:06:44;;;;;;;4.63;1.17;;;8.90;99.90;;;;;;4953560;28;20038;-86
2022/03/30 11:09:28;;;;;;;5.78;1.10;;;8.70;99.90;;;;;;4952668;28;20039;-86
2022/03/30 11:12:02;;;;;;;3.95;1.30;;;8.50;99.90;;;;;;4954214;28;20047;-86
2022/03/30 11:14:36;;;;;;;4.43;1.00;;;8.40;99.90;;;;;;4953804;28;20418;-86
2022/03/30 11:17:09;;;;;;;3.78;1.00;;;8.30;99.90;;;;;;4952809;29;20047;-86
2022/03/30 11:19:47;;;;;;;3.40;1.05;;;8.30;99.90;;;;;;4954096;28;20043;-86
2022/03/30 11:22:15;;;;;;;5.18;1.40;;;8.30;99.90;;;;;;4954175;28;20409;-86
2022/03/30 11:24:46;;;;;;;3.95;1.17;;;8.40;99.90;;;;;;4953986;28;20126;-86
2022/03/30 11:27:11;;;;;;;5.15;1.00;;;8.40;99.90;;;;;;4952828;29;20059;-86
2022/03/30 11:29:50;;;;;;;3.00;0.90;;;8.40;99.90;;;;;;4952784;28;20102;-86
2022/03/30 11:32:24;;;;;;;3.85;0.98;;;8.40;99.90;;;;;;4954164;28;20067;-86
2022/03/30 11:34:54;;;;;;;5.18;1.17;;;8.30;99.90;;;;;;4952408;29;20047;-86
2022/03/30 11:37:20;;;;;;;3.75;0.82;;;8.40;99.90;;;;;;4951223;28;20081;-86
2022/03/30 11:39:49;;;;;;;11.45;0.90;;;8.50;99.90;;;;;;4952777;29;20043;-86
2022/03/30 11:42:19;;;;;;;3.67;0.80;;;8.60;99.90;;;;;;4952480;28;20078;-86
2022/03/30 11:47:34;;;;;;;3.05;0.82;;;8.80;99.90;;;;;;4953576;28;20145;-86
2022/03/30 11:50:00;;;;;;;2.70;0.85;;;9.10;99.90;;;;;;4950863;28;20138;-86
2022/03/30 11:52:25;;;;;;;2.72;1.00;;;9.20;99.90;;;;;;4951855;28;20067;-87
2022/03/30 11:54:53;;;;;;;2.10;0.70;;;9.30;99.90;;;;;;4953094;28;20105;-85
2022/03/30 11:57:21;;;;;;;5.30;1.00;;;9.30;99.90;;;;;;4952461;28;20054;-86
2022/03/30 12:00:00;;;;;;;3.95;1.00;;;9.40;99.90;;;;;;4952451;28;20046;-86
2022/03/30 12:02:29;;;;;;;3.83;0.80;;;9.60;99.90;;;;;;4953586;28;20118;-86
2022/03/30 12:04:57;;;;;;;2.58;0.82;;;9.90;99.90;;;;;;4952141;28;20646;-87
2022/03/30 12:07:23;;;;;;;4.05;0.90;;;9.90;99.90;;;;;;4952281;29;20051;-86
2022/03/30 12:09:53;;;;;;;3.90;0.80;;;10.00;99.90;;;;;;4953497;28;20086;-87
2022/03/30 12:12:39;;;;;;;2.05;0.60;;;9.90;99.90;;;;;;4952253;28;20047;-86
2022/03/30 12:15:11;;;;;;;2.03;1.02;;;10.00;99.90;;;;;;4953662;28;20051;-86
2022/03/30 12:17:37;;;;;;;8.27;1.10;;;9.90;99.90;;;;;;4957158;28;20572;-87
2022/03/30 12:20:05;;;;;;;1.98;0.60;;;9.90;99.90;;;;;;4956092;28;20046;-87
2022/03/30 12:22:32;;;;;;;4.90;0.93;;;9.90;99.90;;;;;;4956079;29;20047;-87
2022/03/30 12:24:58;;;;;;;2.15;0.80;;;10.10;99.90;;;;;;4959027;28;20218;-88
2022/03/30 12:27:25;;;;;;;3.75;0.70;;;10.40;99.90;;;;;;4975073;28;20138;-86
2022/03/30 12:29:55;;;;;;;3.47;0.70;;;10.50;99.90;;;;;;4976289;28;20043;-87
2022/03/30 12:32:23;;;;;;;2.80;1.15;;;11.00;99.90;;;;;;4976377;28;20448;-86
2022/03/30 12:34:49;;;;;;;4.47;0.95;;;10.90;99.90;;;;;;4973636;28;20081;-87
2022/03/30 12:37:22;;;;;;;2.88;0.90;;;11.10;99.90;;;;;;4972102;28;20090;-86
2022/03/30 12:39:48;;;;;;;4.15;0.70;;;11.10;99.90;;;;;;4956704;28;20039;-87
2022/03/30 12:42:27;;;;;;;3.95;0.80;;;10.90;99.90;;;;;;4975109;28;20046;-87
2022/03/30 12:44:59;;;;;;;2.40;0.70;;;10.20;97.00;;;;;;4975997;28;20138;-86
2022/03/30 12:47:25;;;;;;;4.85;0.80;;;10.10;99.90;;;;;;4982167;28;20057;-87
2022/03/30 12:49:55;;;;;;;3.70;0.77;;;9.90;98.30;;;;;;4975721;28;20038;-86
2022/03/30 12:52:21;;;;;;;2.03;0.70;;;9.80;99.70;;;;;;4974859;28;20050;-87
2022/03/30 12:54:48;;;;;;;6.15;1.13;;;9.90;99.90;;;;;;4974409;28;20076;-87
2022/03/30 12:57:30;;;;;;;4.93;0.50;;;9.80;99.60;;;;;;4965308;28;20046;-87
2022/03/30 13:00:21;;;;;;;3.80;0.77;;;9.70;99.90;;;;;;4976056;28;20043;-86
2022/03/30 13:02:47;;;;;;;4.70;0.80;;;9.80;99.30;;;;;;4976011;28;20412;-87
2022/03/30 13:05:24;;;;;;;5.72;1.10;;;10.00;99.90;;;;;;4958376;28;20495;-87
2022/03/30 13:07:51;;;;;;;5.07;1.30;;;10.20;99.90;;;;;;4975832;28;20069;-87
2022/03/30 13:10:19;;;;;;;3.28;0.90;;;10.50;99.90;;;;;;4974787;28;20097;-88
2022/03/30 13:12:50;;;;;;;2.33;0.80;;;10.50;99.90;;;;;;4958360;28;20493;-87